sensor_id;sensor_type;location;lat;lon;timestamp;P1;durP1;ratioP1;P2;durP2;ratioP2
8423;SDS011;4249;49.072;9.770;2022-12-18T00:00:18;63.97;;;32.63;;
8423;SDS011;4249;49.072;9.770;2022-12-18T00:03:06;54.13;;;28.83;;
8423;SDS011;4249;49.072;9.770;2022-12-18T00:05:56;60.83;;;29.67;;
8423;SDS011;4249;49.072;9.770;2022-12-18T00:08:44;54.07;;;29.97;;
8423;SDS011;4249;49.072;9.770;2022-12-18T00:11:35;54.07;;;29.30;;
8423;SDS011;4249;49.072;9.770;2022-12-18T00:14:23;56.80;;;29.33;;
8423;SDS011;4249;49.072;9.770;2022-12-18T00:17:10;54.17;;;28.50;;
8423;SDS011;4249;49.072;9.770;2022-12-18T00:19:57;54.47;;;28.03;;
8423;SDS011;4249;49.072;9.770;2022-12-18T00:22:44;50.50;;;28.63;;
8423;SDS011;4249;49.072;9.770;2022-12-18T00:25:32;46.33;;;27.10;;
8423;SDS011;4249;49.072;9.770;2022-12-18T00:28:22;56.17;;;29.80;;
8423;SDS011;4249;49.072;9.770;2022-12-18T00:31:09;49.47;;;27.80;;
8423;SDS011;4249;49.072;9.770;2022-12-18T00:33:58;55.57;;;28.83;;
8423;SDS011;4249;49.072;9.770;2022-12-18T00:36:46;53.00;;;28.20;;
8423;SDS011;4249;49.072;9.770;2022-12-18T00:39:37;58.67;;;29.27;;
8423;SDS011;4249;49.072;9.770;2022-12-18T00:42:24;57.87;;;30.23;;
8423;SDS011;4249;49.072;9.770;2022-12-18T00:45:27;53.13;;;29.10;;
8423;SDS011;4249;49.072;9.770;2022-12-18T00:48:16;56.80;;;31.30;;
8423;SDS011;4249;49.072;9.770;2022-12-18T00:51:03;56.03;;;29.53;;
8423;SDS011;4249;49.072;9.770;2022-12-18T00:53:52;68.17;;;33.40;;
8423;SDS011;4249;49.072;9.770;2022-12-18T00:56:39;59.10;;;30.00;;
8423;SDS011;4249;49.072;9.770;2022-12-18T00:59:26;62.00;;;30.80;;
8423;SDS011;4249;49.072;9.770;2022-12-18T01:02:18;59.70;;;31.93;;
8423;SDS011;4249;49.072;9.770;2022-12-18T01:05:06;61.60;;;30.33;;
8423;SDS011;4249;49.072;9.770;2022-12-18T01:07:54;43.63;;;26.00;;
8423;SDS011;4249;49.072;9.770;2022-12-18T01:10:42;55.90;;;29.90;;
8423;SDS011;4249;49.072;9.770;2022-12-18T01:13:29;60.57;;;30.63;;
8423;SDS011;4249;49.072;9.770;2022-12-18T01:16:16;48.87;;;29.83;;
8423;SDS011;4249;49.072;9.770;2022-12-18T01:19:05;47.27;;;27.50;;
8423;SDS011;4249;49.072;9.770;2022-12-18T01:21:52;64.63;;;31.93;;
8423;SDS011;4249;49.072;9.770;2022-12-18T01:24:39;58.43;;;30.83;;
8423;SDS011;4249;49.072;9.770;2022-12-18T01:27:27;56.80;;;29.47;;
8423;SDS011;4249;49.072;9.770;2022-12-18T01:30:14;60.20;;;31.53;;
8423;SDS011;4249;49.072;9.770;2022-12-18T01:33:03;51.73;;;28.60;;
8423;SDS011;4249;49.072;9.770;2022-12-18T01:35:52;57.20;;;29.27;;
8423;SDS011;4249;49.072;9.770;2022-12-18T01:38:39;51.90;;;28.30;;
8423;SDS011;4249;49.072;9.770;2022-12-18T01:41:27;54.00;;;29.07;;
8423;SDS011;4249;49.072;9.770;2022-12-18T01:44:50;51.67;;;28.60;;
8423;SDS011;4249;49.072;9.770;2022-12-18T01:47:44;42.47;;;25.17;;
8423;SDS011;4249;49.072;9.770;2022-12-18T01:50:34;54.13;;;28.47;;
8423;SDS011;4249;49.072;9.770;2022-12-18T01:53:24;46.93;;;27.50;;
8423;SDS011;4249;49.072;9.770;2022-12-18T01:56:12;54.47;;;27.67;;
8423;SDS011;4249;49.072;9.770;2022-12-18T01:59:02;50.03;;;27.83;;
8423;SDS011;4249;49.072;9.770;2022-12-18T02:01:52;51.27;;;29.53;;
8423;SDS011;4249;49.072;9.770;2022-12-18T02:04:41;44.10;;;26.37;;
8423;SDS011;4249;49.072;9.770;2022-12-18T02:07:31;46.50;;;26.03;;
8423;SDS011;4249;49.072;9.770;2022-12-18T02:10:30;47.83;;;27.13;;
8423;SDS011;4249;49.072;9.770;2022-12-18T02:13:20;51.03;;;26.97;;
8423;SDS011;4249;49.072;9.770;2022-12-18T02:16:13;51.80;;;26.93;;
8423;SDS011;4249;49.072;9.770;2022-12-18T02:19:08;51.77;;;27.97;;
8423;SDS011;4249;49.072;9.770;2022-12-18T02:22:12;55.50;;;27.83;;
8423;SDS011;4249;49.072;9.770;2022-12-18T02:25:12;54.17;;;28.07;;
8423;SDS011;4249;49.072;9.770;2022-12-18T02:28:11;52.90;;;28.67;;
8423;SDS011;4249;49.072;9.770;2022-12-18T02:31:01;57.50;;;28.17;;
8423;SDS011;4249;49.072;9.770;2022-12-18T02:33:54;60.90;;;29.40;;
8423;SDS011;4249;49.072;9.770;2022-12-18T02:36:45;57.07;;;29.80;;
8423;SDS011;4249;49.072;9.770;2022-12-18T02:39:35;56.97;;;30.10;;
8423;SDS011;4249;49.072;9.770;2022-12-18T02:42:27;58.57;;;28.07;;
8423;SDS011;4249;49.072;9.770;2022-12-18T02:45:16;50.73;;;27.33;;
8423;SDS011;4249;49.072;9.770;2022-12-18T02:48:03;56.37;;;27.97;;
8423;SDS011;4249;49.072;9.770;2022-12-18T02:50:52;56.20;;;28.47;;
8423;SDS011;4249;49.072;9.770;2022-12-18T02:53:48;53.83;;;27.20;;
8423;SDS011;4249;49.072;9.770;2022-12-18T02:56:43;54.67;;;29.20;;
8423;SDS011;4249;49.072;9.770;2022-12-18T02:59:38;57.80;;;28.47;;
8423;SDS011;4249;49.072;9.770;2022-12-18T03:02:33;62.03;;;29.77;;
8423;SDS011;4249;49.072;9.770;2022-12-18T03:05:29;48.27;;;27.40;;
8423;SDS011;4249;49.072;9.770;2022-12-18T03:08:20;48.67;;;26.67;;
8423;SDS011;4249;49.072;9.770;2022-12-18T03:11:11;51.60;;;26.43;;
8423;SDS011;4249;49.072;9.770;2022-12-18T03:13:59;50.70;;;28.40;;
8423;SDS011;4249;49.072;9.770;2022-12-18T03:16:47;53.93;;;26.97;;
8423;SDS011;4249;49.072;9.770;2022-12-18T03:19:37;57.97;;;27.40;;
8423;SDS011;4249;49.072;9.770;2022-12-18T03:22:26;63.53;;;31.00;;
8423;SDS011;4249;49.072;9.770;2022-12-18T03:25:16;57.40;;;30.13;;
8423;SDS011;4249;49.072;9.770;2022-12-18T03:28:05;56.43;;;30.23;;
8423;SDS011;4249;49.072;9.770;2022-12-18T03:30:56;52.17;;;26.13;;
8423;SDS011;4249;49.072;9.770;2022-12-18T03:33:51;56.97;;;27.90;;
8423;SDS011;4249;49.072;9.770;2022-12-18T03:36:41;56.07;;;28.63;;
8423;SDS011;4249;49.072;9.770;2022-12-18T03:39:28;62.03;;;28.93;;
8423;SDS011;4249;49.072;9.770;2022-12-18T03:42:16;57.37;;;29.07;;
8423;SDS011;4249;49.072;9.770;2022-12-18T03:45:13;58.23;;;29.80;;
8423;SDS011;4249;49.072;9.770;2022-12-18T03:48:09;59.00;;;28.70;;
8423;SDS011;4249;49.072;9.770;2022-12-18T03:51:05;57.03;;;29.10;;
8423;SDS011;4249;49.072;9.770;2022-12-18T03:53:58;49.67;;;26.67;;
8423;SDS011;4249;49.072;9.770;2022-12-18T03:56:49;52.50;;;27.57;;
8423;SDS011;4249;49.072;9.770;2022-12-18T03:59:41;55.83;;;29.20;;
8423;SDS011;4249;49.072;9.770;2022-12-18T04:02:31;57.67;;;28.17;;
8423;SDS011;4249;49.072;9.770;2022-12-18T04:05:20;51.33;;;26.37;;
8423;SDS011;4249;49.072;9.770;2022-12-18T04:08:09;52.10;;;27.33;;
8423;SDS011;4249;49.072;9.770;2022-12-18T04:10:58;43.43;;;25.63;;
8423;SDS011;4249;49.072;9.770;2022-12-18T04:13:46;53.53;;;27.03;;
8423;SDS011;4249;49.072;9.770;2022-12-18T04:16:33;51.23;;;25.83;;
8423;SDS011;4249;49.072;9.770;2022-12-18T04:19:20;48.70;;;25.17;;
8423;SDS011;4249;49.072;9.770;2022-12-18T04:22:08;51.33;;;26.73;;
8423;SDS011;4249;49.072;9.770;2022-12-18T04:24:56;46.57;;;24.40;;
8423;SDS011;4249;49.072;9.770;2022-12-18T04:27:45;46.50;;;24.93;;
8423;SDS011;4249;49.072;9.770;2022-12-18T04:30:32;46.27;;;24.70;;
8423;SDS011;4249;49.072;9.770;2022-12-18T04:33:19;44.30;;;24.50;;
8423;SDS011;4249;49.072;9.770;2022-12-18T04:36:06;53.60;;;26.80;;
8423;SDS011;4249;49.072;9.770;2022-12-18T04:38:54;55.47;;;27.27;;
8423;SDS011;4249;49.072;9.770;2022-12-18T04:41:41;46.60;;;25.57;;
8423;SDS011;4249;49.072;9.770;2022-12-18T04:44:30;51.37;;;24.97;;
8423;SDS011;4249;49.072;9.770;2022-12-18T04:47:17;44.00;;;24.63;;
8423;SDS011;4249;49.072;9.770;2022-12-18T04:50:04;52.87;;;23.87;;
8423;SDS011;4249;49.072;9.770;2022-12-18T04:52:52;48.73;;;25.97;;
8423;SDS011;4249;49.072;9.770;2022-12-18T04:55:39;47.37;;;25.37;;
8423;SDS011;4249;49.072;9.770;2022-12-18T04:58:26;51.17;;;24.80;;
8423;SDS011;4249;49.072;9.770;2022-12-18T05:01:15;46.73;;;25.90;;
8423;SDS011;4249;49.072;9.770;2022-12-18T05:04:04;49.63;;;25.60;;
8423;SDS011;4249;49.072;9.770;2022-12-18T05:06:51;52.67;;;25.63;;
8423;SDS011;4249;49.072;9.770;2022-12-18T05:09:38;57.53;;;25.30;;
8423;SDS011;4249;49.072;9.770;2022-12-18T05:12:25;48.10;;;22.30;;
8423;SDS011;4249;49.072;9.770;2022-12-18T05:15:13;51.53;;;25.90;;
8423;SDS011;4249;49.072;9.770;2022-12-18T05:18:01;52.17;;;24.60;;
8423;SDS011;4249;49.072;9.770;2022-12-18T05:20:50;50.37;;;23.97;;
8423;SDS011;4249;49.072;9.770;2022-12-18T05:23:37;50.67;;;24.80;;
8423;SDS011;4249;49.072;9.770;2022-12-18T05:26:24;53.97;;;25.17;;
8423;SDS011;4249;49.072;9.770;2022-12-18T05:29:12;46.80;;;22.23;;
8423;SDS011;4249;49.072;9.770;2022-12-18T05:31:59;55.70;;;26.37;;
8423;SDS011;4249;49.072;9.770;2022-12-18T05:34:48;49.57;;;22.97;;
8423;SDS011;4249;49.072;9.770;2022-12-18T05:37:35;49.80;;;24.03;;
8423;SDS011;4249;49.072;9.770;2022-12-18T05:40:22;46.77;;;22.77;;
8423;SDS011;4249;49.072;9.770;2022-12-18T05:43:09;52.97;;;24.93;;
8423;SDS011;4249;49.072;9.770;2022-12-18T05:45:57;43.03;;;21.40;;
8423;SDS011;4249;49.072;9.770;2022-12-18T05:48:44;48.27;;;23.60;;
8423;SDS011;4249;49.072;9.770;2022-12-18T05:51:33;47.03;;;22.33;;
8423;SDS011;4249;49.072;9.770;2022-12-18T05:54:20;47.13;;;22.20;;
8423;SDS011;4249;49.072;9.770;2022-12-18T05:57:07;43.67;;;21.60;;
8423;SDS011;4249;49.072;9.770;2022-12-18T05:59:54;49.77;;;22.17;;
8423;SDS011;4249;49.072;9.770;2022-12-18T06:02:41;46.07;;;21.80;;
8423;SDS011;4249;49.072;9.770;2022-12-18T06:05:34;49.03;;;23.70;;
8423;SDS011;4249;49.072;9.770;2022-12-18T06:08:24;49.40;;;22.97;;
8423;SDS011;4249;49.072;9.770;2022-12-18T06:11:11;41.57;;;22.97;;
8423;SDS011;4249;49.072;9.770;2022-12-18T06:13:58;42.93;;;21.43;;
8423;SDS011;4249;49.072;9.770;2022-12-18T06:16:45;48.67;;;24.03;;
8423;SDS011;4249;49.072;9.770;2022-12-18T06:19:33;47.40;;;22.70;;
8423;SDS011;4249;49.072;9.770;2022-12-18T06:22:20;49.10;;;23.37;;
8423;SDS011;4249;49.072;9.770;2022-12-18T06:25:11;41.90;;;21.60;;
8423;SDS011;4249;49.072;9.770;2022-12-18T06:27:58;44.57;;;21.80;;
8423;SDS011;4249;49.072;9.770;2022-12-18T06:30:45;50.90;;;22.70;;
8423;SDS011;4249;49.072;9.770;2022-12-18T06:33:35;49.60;;;22.53;;
8423;SDS011;4249;49.072;9.770;2022-12-18T06:36:22;44.70;;;21.47;;
8423;SDS011;4249;49.072;9.770;2022-12-18T06:39:09;45.77;;;23.87;;
8423;SDS011;4249;49.072;9.770;2022-12-18T06:41:58;48.07;;;23.13;;
8423;SDS011;4249;49.072;9.770;2022-12-18T06:44:45;48.63;;;22.67;;
8423;SDS011;4249;49.072;9.770;2022-12-18T06:47:32;48.63;;;22.87;;
8423;SDS011;4249;49.072;9.770;2022-12-18T06:50:19;53.77;;;24.57;;
8423;SDS011;4249;49.072;9.770;2022-12-18T06:53:06;52.93;;;25.43;;
8423;SDS011;4249;49.072;9.770;2022-12-18T06:55:59;46.27;;;24.40;;
8423;SDS011;4249;49.072;9.770;2022-12-18T06:58:48;47.40;;;22.97;;
8423;SDS011;4249;49.072;9.770;2022-12-18T07:01:35;48.47;;;22.90;;
8423;SDS011;4249;49.072;9.770;2022-12-18T07:04:26;57.77;;;25.27;;
8423;SDS011;4249;49.072;9.770;2022-12-18T07:07:14;47.40;;;21.77;;
8423;SDS011;4249;49.072;9.770;2022-12-18T07:10:02;49.50;;;23.07;;
8423;SDS011;4249;49.072;9.770;2022-12-18T07:12:49;55.23;;;25.73;;
8423;SDS011;4249;49.072;9.770;2022-12-18T07:15:37;58.63;;;29.20;;
8423;SDS011;4249;49.072;9.770;2022-12-18T07:18:25;56.77;;;29.53;;
8423;SDS011;4249;49.072;9.770;2022-12-18T07:21:12;54.60;;;26.20;;
8423;SDS011;4249;49.072;9.770;2022-12-18T07:24:01;49.40;;;26.10;;
8423;SDS011;4249;49.072;9.770;2022-12-18T07:26:48;55.03;;;25.10;;
8423;SDS011;4249;49.072;9.770;2022-12-18T07:29:35;54.90;;;26.73;;
8423;SDS011;4249;49.072;9.770;2022-12-18T07:32:24;51.30;;;24.63;;
8423;SDS011;4249;49.072;9.770;2022-12-18T07:35:11;50.50;;;23.93;;
8423;SDS011;4249;49.072;9.770;2022-12-18T07:37:58;47.07;;;23.13;;
8423;SDS011;4249;49.072;9.770;2022-12-18T07:40:46;59.57;;;24.17;;
8423;SDS011;4249;49.072;9.770;2022-12-18T07:43:34;52.70;;;25.20;;
8423;SDS011;4249;49.072;9.770;2022-12-18T07:46:21;54.23;;;25.40;;
8423;SDS011;4249;49.072;9.770;2022-12-18T07:49:11;51.27;;;23.13;;
8423;SDS011;4249;49.072;9.770;2022-12-18T07:51:58;51.57;;;23.33;;
8423;SDS011;4249;49.072;9.770;2022-12-18T07:54:47;52.93;;;23.00;;
8423;SDS011;4249;49.072;9.770;2022-12-18T07:57:35;53.97;;;25.43;;
8423;SDS011;4249;49.072;9.770;2022-12-18T08:00:22;53.47;;;25.93;;
8423;SDS011;4249;49.072;9.770;2022-12-18T08:03:11;59.47;;;26.00;;
8423;SDS011;4249;49.072;9.770;2022-12-18T08:06:00;60.93;;;29.57;;
8423;SDS011;4249;49.072;9.770;2022-12-18T08:08:48;51.43;;;22.50;;
8423;SDS011;4249;49.072;9.770;2022-12-18T08:11:36;51.90;;;24.33;;
8423;SDS011;4249;49.072;9.770;2022-12-18T08:14:25;52.27;;;22.77;;
8423;SDS011;4249;49.072;9.770;2022-12-18T08:17:13;49.33;;;22.77;;
8423;SDS011;4249;49.072;9.770;2022-12-18T08:20:00;50.80;;;23.23;;
8423;SDS011;4249;49.072;9.770;2022-12-18T08:22:49;56.20;;;22.93;;
8423;SDS011;4249;49.072;9.770;2022-12-18T08:25:36;55.50;;;24.30;;
8423;SDS011;4249;49.072;9.770;2022-12-18T08:28:23;52.57;;;23.17;;
8423;SDS011;4249;49.072;9.770;2022-12-18T08:31:12;44.67;;;22.50;;
8423;SDS011;4249;49.072;9.770;2022-12-18T08:34:00;56.57;;;22.57;;
8423;SDS011;4249;49.072;9.770;2022-12-18T08:36:50;52.23;;;21.97;;
8423;SDS011;4249;49.072;9.770;2022-12-18T08:39:38;48.47;;;20.87;;
8423;SDS011;4249;49.072;9.770;2022-12-18T08:42:25;49.17;;;22.37;;
8423;SDS011;4249;49.072;9.770;2022-12-18T08:45:31;49.90;;;21.03;;
8423;SDS011;4249;49.072;9.770;2022-12-18T08:48:20;49.13;;;20.80;;
8423;SDS011;4249;49.072;9.770;2022-12-18T08:51:07;47.10;;;22.43;;
8423;SDS011;4249;49.072;9.770;2022-12-18T08:53:56;56.07;;;20.90;;
8423;SDS011;4249;49.072;9.770;2022-12-18T08:56:44;43.03;;;20.03;;
8423;SDS011;4249;49.072;9.770;2022-12-18T08:59:31;93.07;;;36.20;;
8423;SDS011;4249;49.072;9.770;2022-12-18T09:02:25;173.07;;;60.13;;
8423;SDS011;4249;49.072;9.770;2022-12-18T09:05:15;53.37;;;25.67;;
8423;SDS011;4249;49.072;9.770;2022-12-18T09:08:02;47.07;;;23.03;;
8423;SDS011;4249;49.072;9.770;2022-12-18T09:10:50;49.07;;;22.07;;
8423;SDS011;4249;49.072;9.770;2022-12-18T09:13:39;47.87;;;21.73;;
8423;SDS011;4249;49.072;9.770;2022-12-18T09:16:27;47.73;;;24.47;;
8423;SDS011;4249;49.072;9.770;2022-12-18T09:19:16;48.20;;;21.00;;
8423;SDS011;4249;49.072;9.770;2022-12-18T09:22:04;46.53;;;22.13;;
8423;SDS011;4249;49.072;9.770;2022-12-18T09:24:52;47.80;;;20.53;;
8423;SDS011;4249;49.072;9.770;2022-12-18T09:27:39;46.53;;;21.00;;
8423;SDS011;4249;49.072;9.770;2022-12-18T09:30:30;41.43;;;20.73;;
8423;SDS011;4249;49.072;9.770;2022-12-18T09:33:18;43.73;;;20.80;;
8423;SDS011;4249;49.072;9.770;2022-12-18T09:36:07;45.50;;;21.67;;
8423;SDS011;4249;49.072;9.770;2022-12-18T09:38:56;38.77;;;18.73;;
8423;SDS011;4249;49.072;9.770;2022-12-18T09:41:45;49.87;;;23.23;;
8423;SDS011;4249;49.072;9.770;2022-12-18T09:44:36;43.53;;;20.40;;
8423;SDS011;4249;49.072;9.770;2022-12-18T09:47:29;44.50;;;21.10;;
8423;SDS011;4249;49.072;9.770;2022-12-18T09:50:22;45.23;;;20.40;;
8423;SDS011;4249;49.072;9.770;2022-12-18T09:53:13;45.10;;;20.27;;
8423;SDS011;4249;49.072;9.770;2022-12-18T09:56:05;47.10;;;20.90;;
8423;SDS011;4249;49.072;9.770;2022-12-18T09:59:02;44.73;;;20.37;;
8423;SDS011;4249;49.072;9.770;2022-12-18T10:01:50;47.73;;;20.43;;
8423;SDS011;4249;49.072;9.770;2022-12-18T10:04:40;95.47;;;35.53;;
8423;SDS011;4249;49.072;9.770;2022-12-18T10:07:29;101.53;;;34.13;;
8423;SDS011;4249;49.072;9.770;2022-12-18T10:10:36;47.13;;;21.13;;
8423;SDS011;4249;49.072;9.770;2022-12-18T10:13:28;43.30;;;20.13;;
8423;SDS011;4249;49.072;9.770;2022-12-18T10:16:22;43.87;;;21.77;;
8423;SDS011;4249;49.072;9.770;2022-12-18T10:19:29;49.87;;;23.70;;
8423;SDS011;4249;49.072;9.770;2022-12-18T10:22:33;51.03;;;24.67;;
8423;SDS011;4249;49.072;9.770;2022-12-18T10:25:31;45.97;;;20.90;;
8423;SDS011;4249;49.072;9.770;2022-12-18T10:28:23;41.57;;;19.90;;
8423;SDS011;4249;49.072;9.770;2022-12-18T10:31:12;42.77;;;21.33;;
8423;SDS011;4249;49.072;9.770;2022-12-18T10:34:03;45.47;;;20.50;;
8423;SDS011;4249;49.072;9.770;2022-12-18T10:36:50;40.97;;;20.23;;
8423;SDS011;4249;49.072;9.770;2022-12-18T10:39:40;40.77;;;19.00;;
8423;SDS011;4249;49.072;9.770;2022-12-18T10:42:27;39.27;;;19.60;;
8423;SDS011;4249;49.072;9.770;2022-12-18T10:45:17;39.87;;;19.20;;
8423;SDS011;4249;49.072;9.770;2022-12-18T10:48:04;45.83;;;20.30;;
8423;SDS011;4249;49.072;9.770;2022-12-18T10:51:03;35.67;;;19.53;;
8423;SDS011;4249;49.072;9.770;2022-12-18T10:53:52;39.60;;;19.10;;
8423;SDS011;4249;49.072;9.770;2022-12-18T10:56:44;42.70;;;19.13;;
8423;SDS011;4249;49.072;9.770;2022-12-18T10:59:31;36.70;;;18.33;;
8423;SDS011;4249;49.072;9.770;2022-12-18T11:02:37;42.20;;;19.87;;
8423;SDS011;4249;49.072;9.770;2022-12-18T11:05:26;38.20;;;18.57;;
8423;SDS011;4249;49.072;9.770;2022-12-18T11:08:19;38.40;;;19.17;;
8423;SDS011;4249;49.072;9.770;2022-12-18T11:11:15;41.63;;;21.87;;
8423;SDS011;4249;49.072;9.770;2022-12-18T11:14:12;41.60;;;20.37;;
8423;SDS011;4249;49.072;9.770;2022-12-18T11:17:05;40.33;;;20.17;;
8423;SDS011;4249;49.072;9.770;2022-12-18T11:20:04;39.80;;;19.43;;
8423;SDS011;4249;49.072;9.770;2022-12-18T11:22:56;38.17;;;18.63;;
8423;SDS011;4249;49.072;9.770;2022-12-18T11:25:50;37.83;;;18.60;;
8423;SDS011;4249;49.072;9.770;2022-12-18T11:28:40;36.90;;;19.40;;
8423;SDS011;4249;49.072;9.770;2022-12-18T11:31:33;39.00;;;19.17;;
8423;SDS011;4249;49.072;9.770;2022-12-18T11:34:22;38.73;;;17.63;;
8423;SDS011;4249;49.072;9.770;2022-12-18T11:37:13;39.17;;;18.77;;
8423;SDS011;4249;49.072;9.770;2022-12-18T11:40:06;36.70;;;18.93;;
8423;SDS011;4249;49.072;9.770;2022-12-18T11:43:01;36.63;;;17.97;;
8423;SDS011;4249;49.072;9.770;2022-12-18T11:45:54;43.60;;;21.53;;
8423;SDS011;4249;49.072;9.770;2022-12-18T11:48:48;36.67;;;17.73;;
8423;SDS011;4249;49.072;9.770;2022-12-18T11:51:43;36.70;;;18.00;;
8423;SDS011;4249;49.072;9.770;2022-12-18T11:54:36;35.60;;;17.83;;
8423;SDS011;4249;49.072;9.770;2022-12-18T11:57:27;38.20;;;17.63;;
8423;SDS011;4249;49.072;9.770;2022-12-18T12:00:21;36.10;;;18.20;;
8423;SDS011;4249;49.072;9.770;2022-12-18T12:03:17;38.53;;;17.93;;
8423;SDS011;4249;49.072;9.770;2022-12-18T12:06:16;34.53;;;17.27;;
8423;SDS011;4249;49.072;9.770;2022-12-18T12:09:11;38.97;;;18.50;;
8423;SDS011;4249;49.072;9.770;2022-12-18T12:12:13;39.33;;;18.77;;
8423;SDS011;4249;49.072;9.770;2022-12-18T12:15:17;34.47;;;18.73;;
8423;SDS011;4249;49.072;9.770;2022-12-18T12:18:15;38.03;;;18.03;;
8423;SDS011;4249;49.072;9.770;2022-12-18T12:21:13;42.93;;;21.93;;
8423;SDS011;4249;49.072;9.770;2022-12-18T12:24:14;36.97;;;18.90;;
8423;SDS011;4249;49.072;9.770;2022-12-18T12:27:25;40.03;;;20.53;;
8423;SDS011;4249;49.072;9.770;2022-12-18T12:30:21;42.43;;;19.73;;
8423;SDS011;4249;49.072;9.770;2022-12-18T12:33:17;43.03;;;20.63;;
8423;SDS011;4249;49.072;9.770;2022-12-18T12:36:17;36.07;;;19.67;;
8423;SDS011;4249;49.072;9.770;2022-12-18T12:39:10;38.00;;;19.03;;
8423;SDS011;4249;49.072;9.770;2022-12-18T12:42:02;35.97;;;19.63;;
8423;SDS011;4249;49.072;9.770;2022-12-18T12:44:50;30.93;;;17.23;;
8423;SDS011;4249;49.072;9.770;2022-12-18T12:47:22;36.07;;;19.53;;
8423;SDS011;4249;49.072;9.770;2022-12-18T12:49:54;36.40;;;18.37;;
8423;SDS011;4249;49.072;9.770;2022-12-18T12:52:27;42.80;;;22.23;;
8423;SDS011;4249;49.072;9.770;2022-12-18T12:54:59;31.03;;;17.00;;
8423;SDS011;4249;49.072;9.770;2022-12-18T12:57:30;35.13;;;17.60;;
8423;SDS011;4249;49.072;9.770;2022-12-18T13:00:01;31.00;;;16.93;;
8423;SDS011;4249;49.072;9.770;2022-12-18T13:02:51;33.40;;;17.33;;
8423;SDS011;4249;49.072;9.770;2022-12-18T13:05:43;37.23;;;18.90;;
8423;SDS011;4249;49.072;9.770;2022-12-18T13:08:52;36.27;;;18.10;;
8423;SDS011;4249;49.072;9.770;2022-12-18T13:11:42;36.13;;;18.97;;
8423;SDS011;4249;49.072;9.770;2022-12-18T13:14:50;32.07;;;16.73;;
8423;SDS011;4249;49.072;9.770;2022-12-18T13:17:37;29.83;;;16.50;;
8423;SDS011;4249;49.072;9.770;2022-12-18T13:20:30;38.17;;;17.03;;
8423;SDS011;4249;49.072;9.770;2022-12-18T13:23:27;33.17;;;16.97;;
8423;SDS011;4249;49.072;9.770;2022-12-18T13:26:37;45.10;;;21.67;;
8423;SDS011;4249;49.072;9.770;2022-12-18T13:29:42;115.40;;;48.03;;
8423;SDS011;4249;49.072;9.770;2022-12-18T13:32:30;49.97;;;23.23;;
8423;SDS011;4249;49.072;9.770;2022-12-18T13:35:37;91.73;;;38.10;;
8423;SDS011;4249;49.072;9.770;2022-12-18T13:38:32;79.33;;;32.93;;
8423;SDS011;4249;49.072;9.770;2022-12-18T13:41:23;116.87;;;47.93;;
8423;SDS011;4249;49.072;9.770;2022-12-18T13:44:20;90.17;;;38.73;;
8423;SDS011;4249;49.072;9.770;2022-12-18T13:47:25;123.63;;;49.87;;
8423;SDS011;4249;49.072;9.770;2022-12-18T13:50:20;80.07;;;34.83;;
8423;SDS011;4249;49.072;9.770;2022-12-18T13:53:12;31.50;;;17.40;;
8423;SDS011;4249;49.072;9.770;2022-12-18T13:56:08;135.67;;;44.93;;
8423;SDS011;4249;49.072;9.770;2022-12-18T13:59:12;83.03;;;27.87;;
8423;SDS011;4249;49.072;9.770;2022-12-18T14:02:11;38.03;;;19.13;;
8423;SDS011;4249;49.072;9.770;2022-12-18T14:05:01;36.03;;;17.97;;
8423;SDS011;4249;49.072;9.770;2022-12-18T14:07:48;36.53;;;18.27;;
8423;SDS011;4249;49.072;9.770;2022-12-18T14:10:16;33.33;;;17.03;;
8423;SDS011;4249;49.072;9.770;2022-12-18T14:12:44;31.07;;;16.73;;
8423;SDS011;4249;49.072;9.770;2022-12-18T14:15:44;35.43;;;18.23;;
8423;SDS011;4249;49.072;9.770;2022-12-18T14:18:38;35.30;;;16.20;;
8423;SDS011;4249;49.072;9.770;2022-12-18T14:21:30;28.70;;;16.20;;
8423;SDS011;4249;49.072;9.770;2022-12-18T14:24:20;36.13;;;17.60;;
8423;SDS011;4249;49.072;9.770;2022-12-18T14:27:12;33.37;;;16.30;;
8423;SDS011;4249;49.072;9.770;2022-12-18T14:30:26;33.43;;;17.53;;
8423;SDS011;4249;49.072;9.770;2022-12-18T14:33:15;36.13;;;16.37;;
8423;SDS011;4249;49.072;9.770;2022-12-18T14:36:05;37.73;;;18.43;;
8423;SDS011;4249;49.072;9.770;2022-12-18T14:39:01;37.87;;;20.30;;
8423;SDS011;4249;49.072;9.770;2022-12-18T14:41:48;37.43;;;18.30;;
8423;SDS011;4249;49.072;9.770;2022-12-18T14:44:35;31.97;;;16.37;;
8423;SDS011;4249;49.072;9.770;2022-12-18T14:47:23;30.60;;;16.17;;
8423;SDS011;4249;49.072;9.770;2022-12-18T14:50:12;31.43;;;16.90;;
8423;SDS011;4249;49.072;9.770;2022-12-18T14:53:02;32.90;;;17.17;;
8423;SDS011;4249;49.072;9.770;2022-12-18T14:55:49;35.03;;;17.00;;
8423;SDS011;4249;49.072;9.770;2022-12-18T14:58:36;33.90;;;18.43;;
8423;SDS011;4249;49.072;9.770;2022-12-18T15:01:26;32.17;;;17.70;;
8423;SDS011;4249;49.072;9.770;2022-12-18T15:04:23;31.30;;;16.33;;
8423;SDS011;4249;49.072;9.770;2022-12-18T15:07:14;33.90;;;18.20;;
8423;SDS011;4249;49.072;9.770;2022-12-18T15:10:09;35.07;;;16.97;;
8423;SDS011;4249;49.072;9.770;2022-12-18T15:13:09;37.83;;;17.60;;
8423;SDS011;4249;49.072;9.770;2022-12-18T15:16:08;35.17;;;17.63;;
8423;SDS011;4249;49.072;9.770;2022-12-18T15:18:59;31.87;;;17.90;;
8423;SDS011;4249;49.072;9.770;2022-12-18T15:21:47;40.20;;;18.80;;
8423;SDS011;4249;49.072;9.770;2022-12-18T15:24:34;36.33;;;17.97;;
8423;SDS011;4249;49.072;9.770;2022-12-18T15:27:24;32.97;;;17.37;;
8423;SDS011;4249;49.072;9.770;2022-12-18T15:30:19;40.27;;;21.30;;
8423;SDS011;4249;49.072;9.770;2022-12-18T15:33:16;34.33;;;18.50;;
8423;SDS011;4249;49.072;9.770;2022-12-18T15:36:10;31.33;;;16.97;;
8423;SDS011;4249;49.072;9.770;2022-12-18T15:38:59;38.73;;;18.13;;
8423;SDS011;4249;49.072;9.770;2022-12-18T15:41:46;38.20;;;18.87;;
8423;SDS011;4249;49.072;9.770;2022-12-18T15:44:53;36.33;;;18.17;;
8423;SDS011;4249;49.072;9.770;2022-12-18T15:47:40;35.70;;;18.00;;
8423;SDS011;4249;49.072;9.770;2022-12-18T15:50:28;39.27;;;19.23;;
8423;SDS011;4249;49.072;9.770;2022-12-18T15:53:17;38.60;;;18.37;;
8423;SDS011;4249;49.072;9.770;2022-12-18T15:56:04;36.33;;;18.10;;
8423;SDS011;4249;49.072;9.770;2022-12-18T15:59:14;40.07;;;18.50;;
8423;SDS011;4249;49.072;9.770;2022-12-18T16:02:07;40.73;;;19.83;;
8423;SDS011;4249;49.072;9.770;2022-12-18T16:05:02;42.37;;;19.80;;
8423;SDS011;4249;49.072;9.770;2022-12-18T16:07:50;41.93;;;19.80;;
8423;SDS011;4249;49.072;9.770;2022-12-18T16:10:37;39.17;;;20.23;;
8423;SDS011;4249;49.072;9.770;2022-12-18T16:13:24;38.37;;;19.37;;
8423;SDS011;4249;49.072;9.770;2022-12-18T16:16:19;37.23;;;17.57;;
8423;SDS011;4249;49.072;9.770;2022-12-18T16:19:07;38.30;;;17.87;;
8423;SDS011;4249;49.072;9.770;2022-12-18T16:21:55;39.57;;;18.03;;
8423;SDS011;4249;49.072;9.770;2022-12-18T16:24:43;42.77;;;18.40;;
8423;SDS011;4249;49.072;9.770;2022-12-18T16:27:32;45.20;;;18.40;;
8423;SDS011;4249;49.072;9.770;2022-12-18T16:30:20;37.07;;;19.17;;
8423;SDS011;4249;49.072;9.770;2022-12-18T16:33:13;41.20;;;20.13;;
8423;SDS011;4249;49.072;9.770;2022-12-18T16:36:02;40.10;;;18.57;;
8423;SDS011;4249;49.072;9.770;2022-12-18T16:38:49;39.00;;;18.90;;
8423;SDS011;4249;49.072;9.770;2022-12-18T16:41:36;35.20;;;16.47;;
8423;SDS011;4249;49.072;9.770;2022-12-18T16:44:23;38.77;;;18.43;;
8423;SDS011;4249;49.072;9.770;2022-12-18T16:47:11;42.13;;;19.57;;
8423;SDS011;4249;49.072;9.770;2022-12-18T16:49:58;39.63;;;20.00;;
8423;SDS011;4249;49.072;9.770;2022-12-18T16:52:47;39.73;;;19.37;;
8423;SDS011;4249;49.072;9.770;2022-12-18T16:55:35;48.10;;;22.03;;
8423;SDS011;4249;49.072;9.770;2022-12-18T16:58:22;36.87;;;19.57;;
8423;SDS011;4249;49.072;9.770;2022-12-18T17:01:09;39.47;;;19.93;;
8423;SDS011;4249;49.072;9.770;2022-12-18T17:03:58;45.60;;;21.03;;
8423;SDS011;4249;49.072;9.770;2022-12-18T17:06:47;44.20;;;21.30;;